DHTSQ EDLW-EDLW

Flight info

Callsign DHTSQ
Flight time 0h 6m
Altitude
Route EDLW/06 VFR
Aircraft DA62

Departure

Time 2026-04-29 17:33
Airport Dortmund Airport (EDLW)

Arrival

Time 2026-04-29 17:40
Airport Dortmund Airport (EDLW)
Time Latitude Longitude Altitude Speed Heading
2026-04-29 17:22 51.51251 7.60568 469 ft 0 kts 191°
2026-04-29 17:24 51.51245 7.60555 469 ft 7 kts 275°
2026-04-29 17:24 51.51253 7.60465 465 ft 9 kts 241°
2026-04-29 17:24 51.51221 7.60372 464 ft 12 kts 241°
2026-04-29 17:24 51.51161 7.60232 464 ft 15 kts 236°
2026-04-29 17:25 51.51181 7.60158 460 ft 11 kts
2026-04-29 17:25 51.51232 7.60269 458 ft 16 kts 58°
2026-04-29 17:25 51.51284 7.60415 456 ft 14 kts 62°
2026-04-29 17:25 51.51337 7.60566 455 ft 17 kts 59°
2026-04-29 17:26 51.51390 7.60715 451 ft 15 kts 62°
2026-04-29 17:26 51.51446 7.60875 439 ft 16 kts 60°
2026-04-29 17:26 51.51495 7.61010 439 ft 12 kts 62°
2026-04-29 17:26 51.51554 7.61052 438 ft 10 kts 338°
2026-04-29 17:27 51.51569 7.60954 424 ft 12 kts 252°
2026-04-29 17:27 51.51548 7.60831 431 ft 12 kts 252°
2026-04-29 17:27 51.51526 7.60698 422 ft 5 kts 265°
2026-04-29 17:27 51.51526 7.60690 416 ft 0 kts 277°
2026-04-29 17:31 51.51531 7.60659 423 ft 8 kts 296°
2026-04-29 17:32 51.51583 7.60608 414 ft 9 kts 356°
2026-04-29 17:32 51.51638 7.60670 419 ft 14 kts 59°
2026-04-29 17:32 51.51787 7.61078 415 ft 66 kts 56°
2026-04-29 17:32 51.51977 7.61563 439 ft 85 kts 56°
2026-04-29 17:33 51.52254 7.62447 620 ft 92 kts 56°
2026-04-29 17:33 51.52701 7.63651 819 ft 109 kts 56°
2026-04-29 17:33 51.53058 7.64811 907 ft 124 kts 63°
2026-04-29 17:33 51.53264 7.65680 1093 ft 121 kts 75°
2026-04-29 17:34 51.52898 7.66835 1302 ft 126 kts 130°
2026-04-29 17:34 51.52143 7.67296 1376 ft 124 kts 207°
2026-04-29 17:34 51.51419 7.66513 1411 ft 126 kts 219°
2026-04-29 17:34 51.50720 7.65585 1417 ft 136 kts 225°
2026-04-29 17:35 51.49587 7.63689 1523 ft 147 kts 234°
2026-04-29 17:35 51.48746 7.61922 1683 ft 152 kts 232°
2026-04-29 17:35 51.48079 7.60602 1690 ft 162 kts 234°
2026-04-29 17:36 51.47392 7.59188 1707 ft 154 kts 234°
2026-04-29 17:36 51.46759 7.57863 1808 ft 146 kts 235°
2026-04-29 17:36 51.46140 7.56544 1780 ft 147 kts 237°
2026-04-29 17:36 51.45762 7.55151 1944 ft 132 kts 268°
2026-04-29 17:37 51.46159 7.53825 1874 ft 143 kts 320°
2026-04-29 17:37 51.46953 7.52719 1708 ft 162 kts 322°
2026-04-29 17:37 51.47838 7.51634 1757 ft 160 kts 327°
2026-04-29 17:37 51.48755 7.51629 1787 ft 138 kts 56°
2026-04-29 17:38 51.49140 7.52919 1485 ft 120 kts 63°
2026-04-29 17:38 51.49452 7.54070 1287 ft 105 kts 61°
2026-04-29 17:38 51.49744 7.55082 1132 ft 94 kts 58°
2026-04-29 17:38 51.50031 7.55979 965 ft 84 kts 56°
2026-04-29 17:39 51.50295 7.56801 847 ft 78 kts 55°
2026-04-29 17:39 51.50585 7.57605 805 ft 92 kts 56°
2026-04-29 17:39 51.50899 7.58543 684 ft 92 kts 56°
2026-04-29 17:39 51.51207 7.59433 580 ft 94 kts 55°
2026-04-29 17:40 51.51506 7.60293 441 ft 78 kts 54°
2026-04-29 17:40 51.51724 7.60909 415 ft 49 kts 63°
2026-04-29 17:40 51.51875 7.61327 410 ft 43 kts 63°
2026-04-29 17:40 51.52030 7.61763 404 ft 41 kts 63°
2026-04-29 17:41 51.52147 7.62113 406 ft 34 kts 58°
2026-04-29 17:41 51.52180 7.62313 408 ft 12 kts 138°
2026-04-29 17:41 51.52102 7.62386 405 ft 9 kts 152°
2026-04-29 17:41 51.52100 7.62388 405 ft 0 kts 149°
2026-04-29 17:44 51.52099 7.62389 405 ft 2 kts 149°
2026-04-29 17:44 51.52063 7.62398 407 ft 12 kts 194°
2026-04-29 17:45 51.52016 7.62295 411 ft 16 kts 245°
2026-04-29 17:45 51.51933 7.62056 420 ft 26 kts 240°
2026-04-29 17:45 51.51856 7.61830 427 ft 27 kts 240°
2026-04-29 17:45 51.51756 7.61547 431 ft 26 kts 241°
2026-04-29 17:46 51.51681 7.61337 431 ft 21 kts 241°
2026-04-29 17:46 51.51598 7.61100 429 ft 17 kts 237°
2026-04-29 17:46 51.51527 7.61062 439 ft 9 kts 178°
2026-04-29 17:46 51.51482 7.60983 433 ft 11 kts 251°
2026-04-29 17:47 51.51417 7.60791 446 ft 27 kts 239°
2026-04-29 17:47 51.51326 7.60531 455 ft 28 kts 239°
2026-04-29 17:47 51.51234 7.60272 458 ft 23 kts 240°
2026-04-29 17:47 51.51160 7.60168 461 ft 4 kts 132°
2026-04-29 17:48 51.51188 7.60285 463 ft 15 kts 57°
2026-04-29 17:48 51.51195 7.60389 468 ft 4 kts 105°
2026-04-29 17:48 51.51194 7.60398 468 ft 0 kts 104°
2026-04-29 17:50 51.51211 7.60388 466 ft 16 kts 274°
2026-04-29 17:50 51.51159 7.60224 464 ft 17 kts 240°
2026-04-29 17:51 51.51192 7.60169 460 ft 13 kts 26°
2026-04-29 17:51 51.51260 7.60345 457 ft 22 kts 60°
2026-04-29 17:51 51.51338 7.60569 455 ft 21 kts 60°
2026-04-29 17:51 51.51417 7.60791 446 ft 30 kts 64°
2026-04-29 17:52 51.51520 7.61057 435 ft 24 kts 37°
2026-04-29 17:52 51.51565 7.61044 433 ft 12 kts 294°
2026-04-29 17:52 51.51543 7.60807 430 ft 17 kts 260°
2026-04-29 17:52 51.51527 7.60688 424 ft 0 kts 274°
2026-04-29 17:54 51.51528 7.60676 424 ft 7 kts 287°
2026-04-29 17:54 51.51579 7.60607 420 ft 16 kts 353°
2026-04-29 17:54 51.51626 7.60637 419 ft 0 kts 64°
2026-04-29 17:55 51.51644 7.60685 419 ft 25 kts 62°
2026-04-29 17:56 51.51811 7.61154 413 ft 71 kts 60°
2026-04-29 17:56 51.52064 7.61889 580 ft 78 kts 54°
2026-04-29 17:56 51.52350 7.62681 769 ft 87 kts 54°
2026-04-29 17:56 51.52674 7.63563 968 ft 96 kts 54°
2026-04-29 17:57 51.53040 7.64533 1187 ft 103 kts 55°
2026-04-29 17:57 51.53659 7.64940 1269 ft 116 kts 352°
2026-04-29 17:57 51.54511 7.64707 1347 ft 129 kts 340°
2026-04-29 17:57 51.54987 7.64090 1344 ft 141 kts 303°
2026-04-29 17:58 51.54786 7.61981 1342 ft 157 kts 249°
2026-04-29 17:58 51.54370 7.60383 1509 ft 153 kts 250°
2026-04-29 17:58 51.53911 7.58833 1566 ft 158 kts 241°
2026-04-29 17:58 51.53357 7.57283 1543 ft 164 kts 242°
2026-04-29 17:59 51.52786 7.55676 1502 ft 170 kts 243°
2026-04-29 17:59 51.52203 7.54016 1180 ft 164 kts 241°
2026-04-29 17:59 51.51390 7.53150 1253 ft 128 kts 181°
2026-04-29 17:59 51.50536 7.53262 1380 ft 127 kts 172°
2026-04-29 18:00 51.49608 7.53614 1383 ft 142 kts 149°
2026-04-29 18:00 51.49472 7.54722 1211 ft 103 kts 56°
2026-04-29 18:00 51.49827 7.55633 987 ft 95 kts 51°
2026-04-29 18:00 51.50136 7.56440 906 ft 77 kts 52°
2026-04-29 18:01 51.50405 7.57182 817 ft 88 kts 55°
2026-04-29 18:01 51.50714 7.58050 741 ft 85 kts 54°
2026-04-29 18:01 51.50980 7.58812 635 ft 78 kts 54°
2026-04-29 18:01 51.51269 7.59613 550 ft 80 kts 56°
2026-04-29 18:02 51.51522 7.60352 432 ft 69 kts 53°
2026-04-29 18:02 51.51756 7.60972 475 ft 66 kts 56°
2026-04-29 18:02 51.51996 7.61688 597 ft 78 kts 52°
2026-04-29 18:02 51.52297 7.62511 724 ft 94 kts 54°
2026-04-29 18:03 51.52655 7.63441 927 ft 102 kts 53°
2026-04-29 18:03 51.53104 7.64402 1081 ft 110 kts 28°
2026-04-29 18:03 51.53875 7.64301 1122 ft 125 kts 347°
2026-04-29 18:03 51.54325 7.63198 1139 ft 144 kts 266°
2026-04-29 18:04 51.54228 7.62178 1172 ft 148 kts 263°
2026-04-29 18:04 51.53932 7.60569 1271 ft 151 kts 251°
2026-04-29 18:04 51.53488 7.59007 1375 ft 153 kts 246°
2026-04-29 18:04 51.53624 7.57653 1622 ft 132 kts 341°
2026-04-29 18:05 51.54172 7.58509 1729 ft 142 kts 99°
2026-04-29 18:05 51.53379 7.59273 1838 ft 147 kts 198°
2026-04-29 18:05 51.53129 7.58064 2035 ft 133 kts 330°
2026-04-29 18:05 51.53830 7.58709 1986 ft 150 kts 86°
2026-04-29 18:06 51.53184 7.59212 1880 ft 132 kts 236°
2026-04-29 18:06 51.52768 7.57879 1538 ft 138 kts 246°
2026-04-29 18:06 51.52337 7.56453 1323 ft 144 kts 248°
2026-04-29 18:06 51.51958 7.54975 1263 ft 147 kts 255°
2026-04-29 18:07 51.51671 7.53470 1327 ft 135 kts 240°
2026-04-29 18:07 51.50825 7.53173 1308 ft 135 kts 169°
2026-04-29 18:07 51.49956 7.53756 1381 ft 135 kts 126°
2026-04-29 18:07 51.49718 7.55161 1206 ft 123 kts 71°
2026-04-29 18:08 51.50054 7.56219 1029 ft 96 kts 53°
2026-04-29 18:08 51.50381 7.57083 857 ft 87 kts 54°
2026-04-29 18:08 51.50658 7.57866 745 ft 76 kts 52°
2026-04-29 18:08 51.50926 7.58630 663 ft 82 kts 54°
2026-04-29 18:09 51.51212 7.59458 585 ft 86 kts 56°
2026-04-29 18:09 51.51469 7.60199 453 ft 66 kts 59°
2026-04-29 18:09 51.51548 7.60426 423 ft 17 kts 55°
2026-04-29 18:09 51.51687 7.60816 418 ft 57 kts 57°
2026-04-29 18:10 51.51917 7.61471 511 ft 74 kts 53°
2026-04-29 18:10 51.52166 7.62182 727 ft 78 kts 54°
2026-04-29 18:10 51.52453 7.62992 913 ft 86 kts 55°
2026-04-29 18:10 51.52705 7.63918 1070 ft 104 kts 76°
2026-04-29 18:11 51.52400 7.65102 1095 ft 126 kts 124°
2026-04-29 18:11 51.51654 7.65306 1100 ft 133 kts 225°
2026-04-29 18:11 51.51073 7.64102 941 ft 128 kts 240°
2026-04-29 18:11 51.50563 7.62983 937 ft 126 kts 239°
2026-04-29 18:12 51.50101 7.61872 804 ft 110 kts 242°
2026-04-29 18:12 51.49723 7.60796 890 ft 115 kts 254°
2026-04-29 18:12 51.49820 7.59566 956 ft 122 kts 313°
2026-04-29 18:12 51.50604 7.59017 880 ft 129 kts
2026-04-29 18:13 51.51331 7.59796 611 ft 140 kts 56°
2026-04-29 18:13 51.51815 7.61182 462 ft 138 kts 57°
2026-04-29 18:13 51.52257 7.62459 630 ft 121 kts 57°
2026-04-29 18:13 51.52653 7.63587 995 ft 110 kts 56°
2026-04-29 18:14 51.53006 7.64712 1140 ft 122 kts 79°
2026-04-29 18:14 51.52564 7.65998 1172 ft 145 kts 134°
2026-04-29 18:14 51.51638 7.66089 1308 ft 147 kts 218°
2026-04-29 18:14 51.50910 7.64937 1318 ft 156 kts 224°
2026-04-29 18:15 51.50146 7.63671 1377 ft 159 kts 231°
2026-04-29 18:15 51.49427 7.62307 1519 ft 155 kts 235°
2026-04-29 18:15 51.48780 7.60739 1265 ft 173 kts 244°
2026-04-29 18:15 51.48236 7.59071 1388 ft 166 kts 250°
2026-04-29 18:16 51.48363 7.57469 1509 ft 150 kts 326°
2026-04-29 18:16 51.49424 7.57365 1053 ft 173 kts 15°
2026-04-29 18:16 51.50547 7.58177 790 ft 177 kts 30°
2026-04-29 18:16 51.51308 7.59713 577 ft 179 kts 59°
2026-04-29 18:17 51.51908 7.61440 494 ft 172 kts 58°
2026-04-29 18:17 51.52458 7.63028 883 ft 133 kts 58°
2026-04-29 18:17 51.52852 7.64260 1205 ft 131 kts 55°
2026-04-29 18:17 51.53636 7.64945 912 ft 152 kts 337°
2026-04-29 18:18 51.54376 7.63846 994 ft 155 kts 278°
2026-04-29 18:18 51.54054 7.62130 988 ft 162 kts 250°
2026-04-29 18:18 51.53578 7.60521 1081 ft 160 kts 243°
2026-04-29 18:18 51.52996 7.58949 1067 ft 165 kts 242°
2026-04-29 18:19 51.52423 7.57358 1107 ft 165 kts 244°
2026-04-29 18:19 51.51876 7.55739 1111 ft 169 kts 244°
2026-04-29 18:19 51.51316 7.54073 1145 ft 167 kts 245°
2026-04-29 18:19 51.50797 7.52425 1149 ft 169 kts 248°
2026-04-29 18:20 51.50307 7.50757 1194 ft 157 kts 248°
2026-04-29 18:20 51.49900 7.49235 1186 ft 134 kts 251°
2026-04-29 18:20 51.49589 7.47886 1168 ft 133 kts 256°
2026-04-29 18:20 51.49326 7.46429 1237 ft 130 kts 262°
2026-04-29 18:21 51.48911 7.45324 1289 ft 122 kts 193°
2026-04-29 18:21 51.48484 7.44160 1231 ft 135 kts 279°
2026-04-29 18:21 51.49153 7.43613 1289 ft 134 kts 38°
2026-04-29 18:21 51.48913 7.44655 1570 ft 134 kts 189°
2026-04-29 18:22 51.48603 7.43558 1602 ft 135 kts 306°
2026-04-29 18:22 51.49349 7.43731 1627 ft 129 kts 75°
2026-04-29 18:22 51.48832 7.44300 1551 ft 110 kts 221°
2026-04-29 18:22 51.48884 7.43263 1286 ft 116 kts 324°
2026-04-29 18:23 51.49619 7.43314 1288 ft 112 kts 47°
2026-04-29 18:23 51.49538 7.44459 1315 ft 123 kts 143°
2026-04-29 18:23 51.48745 7.44270 1403 ft 130 kts 241°
2026-04-29 18:23 51.48159 7.43178 1501 ft 136 kts 185°
2026-04-29 18:24 51.47369 7.43953 1506 ft 144 kts 118°
2026-04-29 18:24 51.47151 7.45539 1393 ft 156 kts 91°
2026-04-29 18:24 51.47140 7.47307 1270 ft 159 kts 76°
2026-04-29 18:24 51.47494 7.48929 1395 ft 153 kts 60°
2026-04-29 18:25 51.48014 7.50407 1478 ft 151 kts 58°
2026-04-29 18:25 51.48551 7.51919 1340 ft 163 kts 56°
2026-04-29 18:25 51.49122 7.53484 1253 ft 158 kts 57°
2026-04-29 18:25 51.49624 7.54908 1164 ft 138 kts 57°
2026-04-29 18:26 51.50091 7.56227 1078 ft 123 kts 56°
2026-04-29 18:26 51.50475 7.57322 921 ft 100 kts 55°
2026-04-29 18:26 51.50822 7.58337 770 ft 107 kts 57°
2026-04-29 18:26 51.51190 7.59392 586 ft 106 kts 56°
2026-04-29 18:27 51.51507 7.60299 432 ft 83 kts 55°
2026-04-29 18:27 51.51732 7.60937 416 ft 50 kts 54°
2026-04-29 18:27 51.51882 7.61362 410 ft 44 kts 57°
2026-04-29 18:27 51.52017 7.61747 405 ft 33 kts 60°
2026-04-29 18:28 51.52133 7.62070 406 ft 43 kts 56°
2026-04-29 18:28 51.52187 7.62307 407 ft 9 kts 146°
2026-04-29 18:28 51.52153 7.62340 405 ft 0 kts 153°
2026-04-29 18:28 51.52147 7.62345 405 ft 6 kts 153°
2026-04-29 18:29 51.52131 7.62360 404 ft 5 kts 149°
2026-04-29 18:29 51.52117 7.62373 404 ft 0 kts 150°
2026-04-29 18:30 51.52047 7.62388 408 ft 12 kts 229°
2026-04-29 18:30 51.51986 7.62193 415 ft 31 kts 237°
2026-04-29 18:30 51.51864 7.61853 423 ft 35 kts 239°
2026-04-29 18:30 51.51761 7.61557 427 ft 26 kts 235°
2026-04-29 18:31 51.51667 7.61296 436 ft 31 kts 239°
2026-04-29 18:31 51.51574 7.61057 437 ft 9 kts 205°
2026-04-29 18:31 51.51493 7.61056 432 ft 17 kts 216°
2026-04-29 18:31 51.51444 7.60868 438 ft 26 kts 242°
2026-04-29 18:32 51.51368 7.60646 454 ft 22 kts 238°
2026-04-29 18:32 51.51225 7.60250 458 ft 19 kts 245°
2026-04-29 18:32 51.51163 7.60164 461 ft 14 kts 142°
2026-04-29 18:33 51.51176 7.60266 464 ft 10 kts 41°
2026-04-29 18:33 51.51204 7.60342 465 ft 2 kts 98°
2026-04-29 18:33 51.51195 7.60392 468 ft 4 kts 107°
2026-04-29 18:33 51.51193 7.60401 468 ft 0 kts 105°